createdAt,value
2019-01-05T00:02:26.979Z,39.43
2019-01-05T00:04:55.703Z,40.40
2019-01-05T00:07:24.491Z,39.07
2019-01-05T00:09:53.214Z,38.07
2019-01-05T00:12:21.934Z,37.97
2019-01-05T00:14:50.802Z,38.07
2019-01-05T00:17:19.946Z,37.57
2019-01-05T00:19:50.202Z,36.93
2019-01-05T00:22:19.136Z,37.07
2019-01-05T00:24:48.020Z,37.07
2019-01-05T00:27:16.882Z,36.93
2019-01-05T00:29:45.965Z,36.33
2019-01-05T00:32:19.776Z,35.20
2019-01-05T00:34:48.817Z,36.63
2019-01-05T00:37:17.785Z,35.30
2019-01-05T00:39:49.830Z,35.27
2019-01-05T00:42:19.425Z,35.40
2019-01-05T00:44:48.421Z,35.73
2019-01-05T00:47:17.209Z,36.47
2019-01-05T00:49:46.857Z,35.70
2019-01-05T00:52:15.718Z,35.10
2019-01-05T00:54:45.367Z,33.33
2019-01-05T00:57:14.573Z,33.30
2019-01-05T00:59:43.617Z,32.73
2019-01-05T01:02:12.469Z,33.17
2019-01-05T01:04:41.309Z,31.80
2019-01-05T01:07:10.107Z,32.70
2019-01-05T01:09:38.943Z,33.13
2019-01-05T01:12:07.709Z,31.87
2019-01-05T01:14:36.567Z,31.53
2019-01-05T01:17:05.325Z,31.43
2019-01-05T01:19:34.316Z,32.03
2019-01-05T01:22:03.151Z,30.47
2019-01-05T01:24:32.018Z,29.60
2019-01-05T01:27:00.823Z,28.07
2019-01-05T01:29:29.779Z,28.03
2019-01-05T01:31:58.620Z,27.63
2019-01-05T01:34:27.686Z,26.83
2019-01-05T01:36:56.461Z,26.40
2019-01-05T01:39:25.539Z,26.57
2019-01-05T01:41:54.457Z,26.10
2019-01-05T01:44:23.249Z,23.17
2019-01-05T01:46:54.301Z,23.40
2019-01-05T01:49:25.091Z,23.73
2019-01-05T01:51:54.571Z,23.63
2019-01-05T01:54:23.804Z,23.90
2019-01-05T01:56:53.001Z,22.23
2019-01-05T01:59:24.768Z,20.30
2019-01-05T02:01:54.234Z,21.83
2019-01-05T02:04:23.187Z,20.47
2019-01-05T02:06:52.250Z,19.70
2019-01-05T02:09:22.545Z,20.80
2019-01-05T02:11:54.413Z,20.73
2019-01-05T02:14:26.188Z,18.80
2019-01-05T02:17:00.672Z,19.27
2019-01-05T02:19:32.437Z,17.93
2019-01-05T02:22:23.753Z,19.73
2019-01-05T02:25:14.852Z,18.83
2019-01-05T02:28:10.501Z,18.80
2019-01-05T02:30:42.300Z,19.13
2019-01-05T02:33:39.415Z,18.20
2019-01-05T02:36:22.619Z,17.97
2019-01-05T02:39:06.570Z,18.67
2019-01-05T02:41:44.334Z,17.83
2019-01-05T02:44:41.657Z,18.63
2019-01-05T02:47:22.235Z,18.00
2019-01-05T02:50:21.030Z,17.63
2019-01-05T02:52:52.845Z,18.40
2019-01-05T02:55:41.774Z,17.43
2019-01-05T02:58:46.646Z,16.73
2019-01-05T03:01:37.393Z,17.37
2019-01-05T03:04:33.111Z,17.80
2019-01-05T03:07:04.892Z,15.67
2019-01-05T03:10:11.088Z,17.30
2019-01-05T03:12:45.567Z,16.70
2019-01-05T03:15:41.181Z,16.97
2019-01-05T03:18:29.053Z,16.70
2019-01-05T03:21:17.340Z,16.87
2019-01-05T03:23:51.965Z,18.47
2019-01-05T03:26:40.143Z,17.57
2019-01-05T03:29:40.239Z,16.50
2019-01-05T03:32:37.378Z,16.10
2019-01-05T03:35:23.765Z,15.97
2019-01-05T03:38:13.301Z,17.40
2019-01-05T03:40:45.096Z,16.77
2019-01-05T03:43:46.951Z,17.07
2019-01-05T03:46:42.794Z,15.30
2019-01-05T03:49:31.057Z,15.57
2019-01-05T03:52:22.434Z,14.30
2019-01-05T03:54:57.198Z,15.63
2019-01-05T03:57:54.292Z,15.10
2019-01-05T04:00:28.716Z,15.83
2019-01-05T04:03:00.509Z,16.30
2019-01-05T04:05:48.653Z,14.00
2019-01-05T04:08:38.568Z,15.50
2019-01-05T04:11:31.315Z,15.33
2019-01-05T04:14:15.014Z,13.93
2019-01-05T04:17:03.332Z,15.43
2019-01-05T04:19:54.471Z,15.63
2019-01-05T04:22:26.285Z,15.00
2019-01-05T04:25:06.831Z,13.97
2019-01-05T04:27:55.080Z,12.87
2019-01-05T04:30:46.210Z,12.77
2019-01-05T04:33:35.705Z,13.47
2019-01-05T04:36:10.251Z,13.17
2019-01-05T04:39:16.792Z,12.57
2019-01-05T04:42:10.882Z,11.47
2019-01-05T04:45:01.955Z,11.43
2019-01-05T04:47:45.735Z,12.00
2019-01-05T04:50:38.438Z,11.23
2019-01-05T04:53:32.580Z,11.97
2019-01-05T04:56:26.826Z,10.80
2019-01-05T04:59:10.275Z,10.73
2019-01-05T05:01:47.617Z,11.57
2019-01-05T05:04:35.983Z,11.50
2019-01-05T05:07:25.102Z,11.47
2019-01-05T05:10:11.856Z,10.60
2019-01-05T05:13:08.874Z,9.73
2019-01-05T05:16:01.368Z,9.73
2019-01-05T05:18:44.785Z,10.47
2019-01-05T05:21:34.471Z,10.10
2019-01-05T05:24:38.825Z,10.50
2019-01-05T05:27:28.454Z,10.03
2019-01-05T05:30:16.826Z,10.40
2019-01-05T05:32:48.690Z,10.73
2019-01-05T05:35:42.909Z,9.97
2019-01-05T05:38:29.615Z,10.07
2019-01-05T05:41:26.845Z,10.37
2019-01-05T05:44:13.609Z,10.80
2019-01-05T05:47:12.386Z,10.50
2019-01-05T05:50:00.476Z,10.93
2019-01-05T05:52:35.007Z,10.60
2019-01-05T05:55:32.035Z,10.63
2019-01-05T05:58:29.321Z,10.37
2019-01-05T06:01:36.921Z,12.43
2019-01-05T06:04:26.283Z,10.47
2019-01-05T06:07:15.954Z,10.60
2019-01-05T06:10:11.322Z,10.47
2019-01-05T06:12:57.580Z,9.70
2019-01-05T06:15:44.154Z,10.73
2019-01-05T06:18:32.150Z,9.13
2019-01-05T06:21:20.241Z,8.50
2019-01-05T06:24:14.251Z,8.57
2019-01-05T06:26:51.658Z,8.07
2019-01-05T06:29:23.462Z,7.03
2019-01-05T06:32:27.737Z,7.13
2019-01-05T06:35:15.751Z,6.13
2019-01-05T06:38:09.921Z,6.77
2019-01-05T06:40:47.185Z,5.20
2019-01-05T06:43:21.657Z,4.90
2019-01-05T06:46:18.759Z,4.80
2019-01-05T06:49:09.593Z,4.20
2019-01-05T06:52:02.104Z,4.17
2019-01-05T06:54:51.515Z,3.70
2019-01-05T06:57:57.531Z,3.23
2019-01-05T07:00:46.914Z,3.10
2019-01-05T07:03:30.273Z,2.60
2019-01-05T07:06:21.273Z,2.63
2019-01-05T07:09:09.207Z,2.30
2019-01-05T07:11:57.561Z,2.40
2019-01-05T07:14:35.083Z,1.80
2019-01-05T07:17:26.099Z,2.77
2019-01-05T07:20:30.559Z,2.87
2019-01-05T07:23:35.485Z,2.63
2019-01-05T07:26:22.198Z,3.73
2019-01-05T07:29:17.719Z,3.27
2019-01-05T07:31:55.225Z,3.67
2019-01-05T07:34:43.230Z,3.30
2019-01-05T07:37:15.008Z,3.13
2019-01-05T07:40:21.256Z,2.97
2019-01-05T07:43:09.324Z,2.90
2019-01-05T07:45:49.945Z,2.80
2019-01-05T07:48:54.626Z,3.50
2019-01-05T07:51:57.575Z,3.60
2019-01-05T07:54:54.740Z,3.50
2019-01-05T07:57:38.118Z,3.23
2019-01-05T08:00:36.977Z,3.80
2019-01-05T08:03:17.384Z,3.80
2019-01-05T08:06:06.848Z,4.10
2019-01-05T08:08:38.668Z,3.63
2019-01-05T08:11:16.105Z,4.00
2019-01-05T08:14:04.240Z,3.97
2019-01-05T08:16:44.947Z,4.20
2019-01-05T08:19:41.790Z,4.17
2019-01-05T08:22:25.502Z,4.37
2019-01-05T08:25:31.928Z,4.10
2019-01-05T08:28:09.579Z,4.47
2019-01-05T08:30:59.310Z,3.93
2019-01-05T08:33:42.898Z,4.33
2019-01-05T08:36:39.858Z,3.03
2019-01-05T08:39:44.440Z,3.57
2019-01-05T08:42:44.218Z,3.93
2019-01-05T08:45:49.084Z,4.43
2019-01-05T08:48:51.009Z,4.53
2019-01-05T08:51:28.296Z,3.80
2019-01-05T08:54:03.002Z,5.60
2019-01-05T08:56:43.635Z,5.03
2019-01-05T08:59:26.812Z,4.93
2019-01-05T09:02:26.993Z,5.40
2019-01-05T09:05:13.664Z,6.67
2019-01-05T09:08:00.175Z,4.83
2019-01-05T09:10:40.694Z,5.33
2019-01-05T09:13:18.266Z,5.53
2019-01-05T09:16:23.062Z,5.83
2019-01-05T09:18:54.848Z,5.60
2019-01-05T09:21:47.621Z,4.80
2019-01-05T09:24:40.125Z,4.77
2019-01-05T09:27:11.912Z,4.27
2019-01-05T09:29:52.606Z,5.53
2019-01-05T09:32:45.433Z,5.00
2019-01-05T09:35:51.397Z,5.00
2019-01-05T09:38:34.853Z,5.23
2019-01-05T09:41:09.036Z,6.03
2019-01-05T09:44:01.683Z,4.93
2019-01-05T09:46:56.906Z,4.53
2019-01-05T09:49:34.386Z,4.23
2019-01-05T09:52:34.565Z,5.20
2019-01-05T09:55:22.549Z,4.93
2019-01-05T09:58:05.251Z,4.20
2019-01-05T10:01:09.787Z,4.70
2019-01-05T10:03:53.050Z,4.57
2019-01-05T10:06:36.828Z,4.40
2019-01-05T10:09:25.085Z,4.27
2019-01-05T10:12:11.799Z,3.67
2019-01-05T10:15:15.157Z,5.17
2019-01-05T10:17:55.859Z,4.77
2019-01-05T10:20:50.067Z,5.10
2019-01-05T10:23:41.033Z,5.13
2019-01-05T10:26:18.576Z,4.60
2019-01-05T10:29:18.874Z,5.20
2019-01-05T10:31:50.650Z,6.03
2019-01-05T10:34:44.765Z,5.30
2019-01-05T10:37:49.575Z,4.83
2019-01-05T10:40:21.352Z,5.53
2019-01-05T10:43:07.345Z,5.00
2019-01-05T10:45:41.745Z,4.80
2019-01-05T10:48:46.645Z,5.20
2019-01-05T10:51:42.455Z,5.53
2019-01-05T10:54:28.978Z,6.70
2019-01-05T10:57:18.414Z,5.73
2019-01-05T10:59:50.168Z,6.00
2019-01-05T11:02:45.905Z,6.20
2019-01-05T11:05:38.286Z,5.70
2019-01-05T11:08:37.035Z,6.13
2019-01-05T11:11:25.295Z,6.20
2019-01-05T11:14:05.927Z,6.77
2019-01-05T11:16:53.711Z,6.10
2019-01-05T11:19:42.538Z,6.23
2019-01-05T11:22:29.398Z,5.63
2019-01-05T11:25:33.787Z,6.17
2019-01-05T11:28:23.399Z,5.23
2019-01-05T11:31:23.610Z,5.70
2019-01-05T11:34:11.628Z,5.83
2019-01-05T11:37:08.467Z,7.03
2019-01-05T11:39:55.269Z,5.77
2019-01-05T11:42:35.677Z,5.60
2019-01-05T11:45:24.603Z,6.10
2019-01-05T11:48:29.145Z,5.43
2019-01-05T11:51:29.514Z,6.13
2019-01-05T11:54:10.196Z,4.90
2019-01-05T11:57:01.523Z,5.83
2019-01-05T11:59:49.864Z,5.70
2019-01-05T12:02:42.697Z,5.70
2019-01-05T12:05:33.600Z,5.67
2019-01-05T12:08:13.814Z,5.80
2019-01-05T12:11:00.552Z,7.03
2019-01-05T12:13:50.263Z,6.60
2019-01-05T12:16:48.687Z,6.03
2019-01-05T12:19:28.869Z,5.90
2019-01-05T12:22:21.734Z,5.70
2019-01-05T12:25:02.411Z,5.90
2019-01-05T12:28:05.916Z,5.07
2019-01-05T12:30:56.874Z,4.50
2019-01-05T12:33:43.595Z,5.60
2019-01-05T12:36:47.066Z,6.10
2019-01-05T12:39:42.695Z,5.23
2019-01-05T12:42:29.157Z,5.83
2019-01-05T12:45:26.144Z,5.63
2019-01-05T12:48:14.216Z,6.63
2019-01-05T12:51:02.491Z,5.37
2019-01-05T12:53:51.719Z,4.93
2019-01-05T12:56:43.019Z,5.00
2019-01-05T12:59:17.774Z,4.50
2019-01-05T13:02:21.144Z,4.90
2019-01-05T13:05:18.409Z,4.27
2019-01-05T13:08:15.771Z,3.87
2019-01-05T13:11:10.059Z,4.30
2019-01-05T13:13:44.719Z,4.77
2019-01-05T13:16:28.509Z,4.40
2019-01-05T13:19:25.480Z,3.53
2019-01-05T13:22:02.819Z,3.90
2019-01-05T13:24:59.887Z,4.03
2019-01-05T13:28:04.341Z,3.40
2019-01-05T13:30:48.026Z,3.80
2019-01-05T13:33:31.481Z,3.83
2019-01-05T13:36:22.794Z,3.63
2019-01-05T13:39:27.545Z,3.13
2019-01-05T13:42:11.014Z,3.00
2019-01-05T13:44:51.667Z,3.80
2019-01-05T13:47:26.083Z,3.10
2019-01-05T13:49:57.855Z,2.87
2019-01-05T13:52:38.570Z,2.50
2019-01-05T13:55:10.356Z,3.00
2019-01-05T13:57:39.071Z,2.73
2019-01-05T14:00:09.801Z,3.40
2019-01-05T14:02:38.534Z,3.20
2019-01-05T14:05:07.213Z,2.50
2019-01-05T14:07:35.962Z,2.97
2019-01-05T14:10:06.186Z,2.83
2019-01-05T14:12:34.949Z,2.80
2019-01-05T14:15:04.069Z,2.87
2019-01-05T14:17:32.781Z,3.13
2019-01-05T14:20:01.483Z,2.90
2019-01-05T14:22:30.181Z,3.37
2019-01-05T14:24:58.910Z,2.80
2019-01-05T14:27:27.702Z,3.80
2019-01-05T14:29:56.568Z,2.73
2019-01-05T14:32:25.272Z,3.17
2019-01-05T14:34:54.023Z,2.90
2019-01-05T14:37:22.750Z,2.40
2019-01-05T14:39:51.441Z,2.43
2019-01-05T14:42:20.161Z,2.43
2019-01-05T14:44:48.875Z,2.80
2019-01-05T14:47:17.599Z,2.50
2019-01-05T14:49:46.409Z,2.70
2019-01-05T14:52:15.237Z,2.10
2019-01-05T14:54:43.946Z,2.30
2019-01-05T14:57:12.642Z,2.73
2019-01-05T14:59:41.408Z,2.40
2019-01-05T15:02:10.299Z,2.47
2019-01-05T15:04:38.975Z,2.43
2019-01-05T15:07:07.758Z,3.60
2019-01-05T15:09:36.496Z,3.20
2019-01-05T15:12:05.924Z,3.40
2019-01-05T15:14:34.669Z,4.00
2019-01-05T15:17:03.464Z,3.17
2019-01-05T15:19:32.153Z,3.30
2019-01-05T15:22:00.888Z,2.93
2019-01-05T15:24:29.605Z,3.80
2019-01-05T15:26:58.482Z,3.90
2019-01-05T15:29:27.236Z,4.00
2019-01-05T15:31:56.036Z,3.50
2019-01-05T15:34:24.794Z,3.67
2019-01-05T15:36:53.538Z,4.10
2019-01-05T15:39:22.291Z,4.13
2019-01-05T15:41:51.061Z,5.70
2019-01-05T15:44:19.868Z,4.67
2019-01-05T15:46:48.562Z,5.53
2019-01-05T15:49:17.286Z,5.17
2019-01-05T15:51:46.450Z,5.10
2019-01-05T15:54:15.229Z,5.90
2019-01-05T15:56:44.034Z,5.53
2019-01-05T15:59:12.755Z,5.80
2019-01-05T16:01:41.465Z,6.77
2019-01-05T16:04:10.166Z,6.33
2019-01-05T16:06:38.898Z,6.57
2019-01-05T16:09:07.712Z,6.63
2019-01-05T16:11:36.471Z,7.27
2019-01-05T16:14:05.169Z,6.67
2019-01-05T16:16:33.973Z,6.33
2019-01-05T16:19:02.666Z,7.87
2019-01-05T16:21:31.406Z,7.20
2019-01-05T16:24:00.199Z,7.73
2019-01-05T16:26:28.930Z,7.30
2019-01-05T16:28:57.638Z,7.50
2019-01-05T16:31:26.399Z,7.03
2019-01-05T16:33:55.133Z,7.30
2019-01-05T16:36:23.893Z,6.83
2019-01-05T16:38:52.664Z,7.17
2019-01-05T16:41:21.533Z,7.13
2019-01-05T16:43:50.223Z,7.93
2019-01-05T16:46:18.955Z,7.67
2019-01-05T16:48:47.633Z,6.87
2019-01-05T16:51:16.359Z,7.73
2019-01-05T16:53:45.055Z,6.70
2019-01-05T16:56:13.810Z,7.57
2019-01-05T16:58:42.492Z,7.37
2019-01-05T17:01:11.322Z,7.67
2019-01-05T17:03:40.019Z,7.00
2019-01-05T17:06:08.737Z,8.27
2019-01-05T17:08:37.479Z,7.63
2019-01-05T17:11:06.192Z,8.60
2019-01-05T17:13:34.914Z,8.77
2019-01-05T17:16:03.629Z,8.87
2019-01-05T17:18:32.370Z,8.50
2019-01-05T17:21:01.085Z,9.10
2019-01-05T17:23:29.828Z,9.33
2019-01-05T17:25:58.535Z,9.30
2019-01-05T17:28:27.324Z,9.70
2019-01-05T17:30:56.154Z,8.73
2019-01-05T17:33:25.001Z,10.33
2019-01-05T17:35:53.720Z,10.13
2019-01-05T17:38:22.461Z,10.17
2019-01-05T17:40:51.299Z,10.83
2019-01-05T17:43:20.062Z,10.10
2019-01-05T17:45:48.890Z,9.30
2019-01-05T17:48:17.678Z,10.13
2019-01-05T17:50:46.361Z,8.60
2019-01-05T17:53:15.281Z,8.20
2019-01-05T17:55:44.081Z,8.53
2019-01-05T17:58:12.789Z,8.13
2019-01-05T18:00:41.620Z,8.00
2019-01-05T18:03:10.378Z,8.80
2019-01-05T18:05:39.225Z,8.20
2019-01-05T18:08:07.975Z,9.13
2019-01-05T18:10:36.833Z,9.30
2019-01-05T18:13:05.664Z,8.73
2019-01-05T18:15:34.498Z,8.53
2019-01-05T18:18:03.313Z,7.80
2019-01-05T18:20:34.146Z,7.90
2019-01-05T18:23:02.501Z,9.47
2019-01-05T18:25:31.353Z,10.57
2019-01-05T18:28:00.135Z,10.00
2019-01-05T18:30:28.914Z,9.73
2019-01-05T18:32:57.690Z,9.37
2019-01-05T18:35:26.516Z,9.20
2019-01-05T18:37:55.236Z,10.97
2019-01-05T18:40:23.968Z,10.03
2019-01-05T18:42:52.784Z,9.43
2019-01-05T18:45:21.632Z,9.57
2019-01-05T18:47:50.351Z,9.60
2019-01-05T18:50:19.071Z,9.40
2019-01-05T18:52:47.790Z,9.33
2019-01-05T18:55:16.535Z,9.07
2019-01-05T18:57:45.420Z,9.47
2019-01-05T19:00:14.201Z,9.73
2019-01-05T19:02:42.944Z,10.77
2019-01-05T19:05:11.814Z,10.47
2019-01-05T19:07:40.514Z,10.13
2019-01-05T19:10:10.829Z,11.40
2019-01-05T19:12:39.542Z,11.03
2019-01-05T19:15:08.481Z,11.47
2019-01-05T19:17:37.218Z,11.43
2019-01-05T19:20:07.271Z,12.20
2019-01-05T19:22:38.984Z,13.43
2019-01-05T19:25:07.849Z,11.60
2019-01-05T19:27:36.650Z,12.03
2019-01-05T19:30:06.937Z,11.30
2019-01-05T19:32:38.475Z,11.37
2019-01-05T19:35:07.180Z,12.37
2019-01-05T19:37:35.942Z,11.73
2019-01-05T19:40:06.625Z,11.80
2019-01-05T19:42:35.423Z,11.77
2019-01-05T19:45:05.984Z,11.70
2019-01-05T19:47:34.733Z,12.40
2019-01-05T19:50:04.571Z,12.90
2019-01-05T19:52:33.386Z,13.97
2019-01-05T19:55:02.155Z,14.33
2019-01-05T19:57:31.037Z,13.10
2019-01-05T19:59:59.793Z,12.93
2019-01-05T20:02:28.603Z,13.97
2019-01-05T20:04:57.342Z,13.83
2019-01-05T20:07:26.085Z,14.17
2019-01-05T20:09:54.812Z,13.67
2019-01-05T20:12:23.518Z,13.33
2019-01-05T20:14:54.952Z,15.47
2019-01-05T20:17:23.810Z,14.33
2019-01-05T20:19:52.585Z,14.13
2019-01-05T20:22:21.461Z,14.80
2019-01-05T20:24:50.332Z,15.17
2019-01-05T20:27:19.149Z,13.97
2019-01-05T20:29:47.997Z,14.70
2019-01-05T20:32:16.739Z,14.90
2019-01-05T20:34:47.006Z,12.47
2019-01-05T20:37:15.757Z,13.53
2019-01-05T20:39:44.550Z,13.60
2019-01-05T20:42:13.344Z,12.97
2019-01-05T20:44:43.720Z,14.57
2019-01-05T20:47:12.468Z,13.90
2019-01-05T20:49:41.375Z,13.57
2019-01-05T20:52:11.654Z,13.63
2019-01-05T20:54:40.497Z,14.37
2019-01-05T20:57:09.361Z,13.10
2019-01-05T20:59:46.769Z,13.37
2019-01-05T21:02:15.514Z,14.67
2019-01-05T21:04:44.242Z,14.43
2019-01-05T21:07:12.979Z,14.10
2019-01-05T21:09:44.618Z,13.97
2019-01-05T21:12:13.360Z,13.93
2019-01-05T21:14:42.084Z,13.63
2019-01-05T21:17:10.906Z,13.10
2019-01-05T21:19:39.786Z,13.33
2019-01-05T21:22:08.523Z,12.07
2019-01-05T21:24:37.271Z,13.83
2019-01-05T21:27:05.993Z,12.67
2019-01-05T21:29:35.103Z,12.40
2019-01-05T21:32:05.412Z,11.43
2019-01-05T21:34:34.163Z,12.37
2019-01-05T21:37:02.906Z,11.80
2019-01-05T21:39:34.439Z,10.30
2019-01-05T21:42:03.225Z,11.00
2019-01-05T21:44:32.107Z,10.47
2019-01-05T21:47:00.906Z,10.00
2019-01-05T21:49:30.549Z,11.27
2019-01-05T21:52:02.551Z,9.50
2019-01-05T21:54:32.044Z,9.13
2019-01-05T21:57:00.751Z,9.87
2019-01-05T21:59:29.565Z,9.43
2019-01-05T22:01:58.294Z,9.53
2019-01-05T22:04:27.025Z,9.50
2019-01-05T22:06:55.852Z,10.23
2019-01-05T22:09:24.683Z,9.40
2019-01-05T22:11:53.463Z,9.37
2019-01-05T22:14:22.251Z,10.90
2019-01-05T22:16:51.099Z,9.27
2019-01-05T22:19:19.898Z,10.00
2019-01-05T22:21:48.804Z,10.10
2019-01-05T22:24:17.619Z,11.30
2019-01-05T22:26:46.403Z,9.80
2019-01-05T22:29:15.223Z,9.83
2019-01-05T22:31:44.039Z,10.60
2019-01-05T22:34:12.750Z,10.63
2019-01-05T22:36:41.479Z,10.63
2019-01-05T22:39:10.187Z,9.90
2019-01-05T22:41:38.922Z,10.10
2019-01-05T22:44:07.627Z,9.93
2019-01-05T22:46:36.354Z,10.83
2019-01-05T22:49:05.066Z,10.10
2019-01-05T22:51:33.882Z,9.53
2019-01-05T22:54:02.655Z,9.17
2019-01-05T22:56:32.053Z,10.43
2019-01-05T22:59:00.845Z,10.80
2019-01-05T23:01:29.802Z,9.63
2019-01-05T23:03:58.569Z,9.20
2019-01-05T23:06:27.259Z,9.60
2019-01-05T23:08:56.056Z,9.33
2019-01-05T23:11:24.827Z,9.13
2019-01-05T23:13:53.591Z,8.60
2019-01-05T23:16:22.391Z,9.13
2019-01-05T23:18:51.183Z,8.77
2019-01-05T23:21:20.077Z,8.53
2019-01-05T23:23:48.915Z,8.33
2019-01-05T23:26:17.606Z,9.30
2019-01-05T23:28:46.352Z,8.03
2019-01-05T23:31:15.226Z,8.93
2019-01-05T23:33:44.010Z,7.60
2019-01-05T23:36:12.721Z,8.20
2019-01-05T23:38:49.852Z,7.80
2019-01-05T23:41:11.926Z,7.93
2019-01-05T23:43:40.653Z,7.30
2019-01-05T23:46:09.361Z,7.60
2019-01-05T23:48:38.053Z,7.83
2019-01-05T23:51:06.787Z,7.13
2019-01-05T23:53:35.564Z,6.97
2019-01-05T23:56:04.277Z,8.43
2019-01-05T23:58:33.119Z,7.77
